createdAt,value
2018-05-27T00:01:53.752Z,102159.40
2018-05-27T00:04:19.489Z,102154.33
2018-05-27T00:06:45.204Z,102160.88
2018-05-27T00:09:10.940Z,102161.48
2018-05-27T00:11:36.656Z,102154.63
2018-05-27T00:14:02.404Z,102152.88
2018-05-27T00:16:28.119Z,102144.73
2018-05-27T00:18:53.868Z,102145.50
2018-05-27T00:21:19.588Z,102148.05
2018-05-27T00:23:45.335Z,102141.27
2018-05-27T00:26:11.061Z,102138.47
2018-05-27T00:28:36.796Z,102140.81
2018-05-27T00:31:02.532Z,102142.23
2018-05-27T00:33:28.328Z,102140.36
2018-05-27T00:35:54.064Z,102137.25
2018-05-27T00:38:19.784Z,102139.03
2018-05-27T00:40:45.517Z,102141.86
2018-05-27T00:43:11.248Z,102142.10
2018-05-27T00:45:36.980Z,102145.14
2018-05-27T00:48:02.713Z,102143.32
2018-05-27T00:50:28.456Z,102145.70
2018-05-27T00:52:54.173Z,102146.68
2018-05-27T00:55:19.912Z,102144.78
2018-05-27T00:57:45.635Z,102141.34
2018-05-27T01:00:11.403Z,102143.14
2018-05-27T01:02:37.112Z,102143.41
2018-05-27T01:05:02.852Z,102137.30
2018-05-27T01:07:28.576Z,102140.97
2018-05-27T01:09:54.309Z,102140.59
2018-05-27T01:12:20.044Z,102137.56
2018-05-27T01:14:45.780Z,102139.89
2018-05-27T01:17:11.551Z,102145.70
2018-05-27T01:19:37.297Z,102145.48
2018-05-27T01:22:03.037Z,102138.06
2018-05-27T01:24:28.773Z,102140.25
2018-05-27T01:26:54.508Z,102139.50
2018-05-27T01:29:20.253Z,102142.27
2018-05-27T01:31:45.979Z,102139.67
2018-05-27T01:34:11.724Z,102125.09
2018-05-27T01:36:37.735Z,102133.80
2018-05-27T01:39:04.363Z,102135.84
2018-05-27T01:41:30.117Z,102136.62
2018-05-27T01:43:55.854Z,102136.20
2018-05-27T01:46:21.601Z,102129.57
2018-05-27T01:48:47.332Z,102129.56
2018-05-27T01:51:13.080Z,102128.45
2018-05-27T01:53:38.812Z,102130.80
2018-05-27T01:56:04.564Z,102131.31
2018-05-27T01:58:30.289Z,102131.82
2018-05-27T02:00:56.027Z,102123.97
2018-05-27T02:03:21.834Z,102124.72
2018-05-27T02:05:47.593Z,102126.59
2018-05-27T02:08:13.347Z,102120.34
2018-05-27T02:10:39.557Z,102113.62
2018-05-27T02:13:05.420Z,102113.73
2018-05-27T02:15:31.171Z,102125.36
2018-05-27T02:17:56.898Z,102124.38
2018-05-27T02:20:22.962Z,102113.48
2018-05-27T02:22:48.695Z,102108.51
2018-05-27T02:25:14.431Z,102113.32
2018-05-27T02:27:40.454Z,102111.95
2018-05-27T02:30:06.212Z,102106.77
2018-05-27T02:32:31.930Z,102105.67
2018-05-27T02:34:57.668Z,102105.19
2018-05-27T02:37:23.392Z,102098.64
2018-05-27T02:39:49.116Z,102101.23
2018-05-27T02:42:14.856Z,102106.12
2018-05-27T02:44:40.576Z,102105.05
2018-05-27T02:47:06.347Z,102102.94
2018-05-27T02:49:32.064Z,102099.21
2018-05-27T02:51:58.624Z,102100.33
2018-05-27T02:54:24.360Z,102100.75
2018-05-27T02:56:50.088Z,102100.02
2018-05-27T02:59:16.101Z,102091.52
2018-05-27T03:01:41.882Z,102096.19
2018-05-27T03:04:07.628Z,102093.38
2018-05-27T03:06:33.392Z,102096.41
2018-05-27T03:08:59.118Z,102099.11
2018-05-27T03:11:24.856Z,102096.95
2018-05-27T03:13:50.581Z,102087.10
2018-05-27T03:16:16.503Z,102089.61
2018-05-27T03:18:42.233Z,102088.40
2018-05-27T03:21:07.965Z,102092.97
2018-05-27T03:23:33.683Z,102095.55
2018-05-27T03:25:59.423Z,102090.44
2018-05-27T03:28:25.141Z,102088.16
2018-05-27T03:30:50.879Z,102087.84
2018-05-27T03:33:16.603Z,102095.91
2018-05-27T03:35:42.336Z,102089.98
2018-05-27T03:38:08.079Z,102095.02
2018-05-27T03:40:33.816Z,102103.75
2018-05-27T03:42:59.528Z,102105.09
2018-05-27T03:45:25.257Z,102100.69
2018-05-27T03:47:50.977Z,102106.34
2018-05-27T03:50:16.704Z,102102.36
2018-05-27T03:52:42.444Z,102100.84
2018-05-27T03:55:08.163Z,102096.28
2018-05-27T03:57:33.888Z,102099.43
2018-05-27T03:59:59.616Z,102102.66
2018-05-27T04:02:25.364Z,102103.58
2018-05-27T04:05:03.586Z,102105.43
2018-05-27T04:07:41.858Z,102104.76
2018-05-27T04:10:07.603Z,102109.36
2018-05-27T04:12:33.348Z,102109.47
2018-05-27T04:14:59.079Z,102106.95
2018-05-27T04:17:24.836Z,102104.73
2018-05-27T04:19:50.575Z,102098.44
2018-05-27T04:22:16.316Z,102093.44
2018-05-27T04:24:42.045Z,102099.27
2018-05-27T04:27:07.796Z,102099.81
2018-05-27T04:29:33.543Z,102097.57
2018-05-27T04:31:59.279Z,102100.45
2018-05-27T04:34:25.028Z,102104.85
2018-05-27T04:36:50.769Z,102096.97
2018-05-27T04:39:16.501Z,102104.23
2018-05-27T04:41:42.249Z,102103.52
2018-05-27T04:44:07.983Z,102100.28
2018-05-27T04:46:33.721Z,102091.77
2018-05-27T04:48:59.450Z,102096.33
2018-05-27T04:51:25.205Z,102099.14
2018-05-27T04:53:50.944Z,102086.82
2018-05-27T04:56:16.696Z,102090.23
2018-05-27T04:58:42.432Z,102089.75
2018-05-27T05:01:08.166Z,102093.16
2018-05-27T05:03:33.911Z,102090.33
2018-05-27T05:05:59.635Z,102087.31
2018-05-27T05:08:25.389Z,102094.47
2018-05-27T05:10:51.125Z,102078.55
2018-05-27T05:13:16.861Z,102087.14
2018-05-27T05:15:42.600Z,102083.13
2018-05-27T05:18:08.368Z,102090.16
2018-05-27T05:20:34.104Z,102085.05
2018-05-27T05:22:59.847Z,102088.59
2018-05-27T05:25:25.568Z,102077.29
2018-05-27T05:27:51.315Z,102077.91
2018-05-27T05:30:17.052Z,102081.63
2018-05-27T05:32:42.810Z,102080.55
2018-05-27T05:35:08.535Z,102080.34
2018-05-27T05:37:34.280Z,102080.80
2018-05-27T05:40:00.018Z,102089.20
2018-05-27T05:42:25.768Z,102090.44
2018-05-27T05:44:51.501Z,102098.41
2018-05-27T05:47:17.248Z,102099.89
2018-05-27T05:49:42.968Z,102102.55
2018-05-27T05:52:08.722Z,102100.91
2018-05-27T05:54:34.460Z,102095.94
2018-05-27T05:57:00.200Z,102092.71
2018-05-27T05:59:25.935Z,102097.36
2018-05-27T06:01:51.685Z,102103.89
2018-05-27T06:04:17.419Z,102099.73
2018-05-27T06:06:43.148Z,102098.12
2018-05-27T06:09:08.900Z,102104.16
2018-05-27T06:11:34.645Z,102099.70
2018-05-27T06:14:00.384Z,102099.02
2018-05-27T06:16:26.126Z,102103.81
2018-05-27T06:18:51.891Z,102103.07
2018-05-27T06:21:17.632Z,102103.00
2018-05-27T06:23:43.384Z,102100.70
2018-05-27T06:26:09.117Z,102099.20
2018-05-27T06:28:34.865Z,102094.34
2018-05-27T06:31:00.595Z,102098.17
2018-05-27T06:33:26.343Z,102098.52
2018-05-27T06:35:52.084Z,102110.05
2018-05-27T06:38:17.838Z,102106.53
2018-05-27T06:40:43.571Z,102104.83
2018-05-27T06:43:09.320Z,102101.41
2018-05-27T06:45:35.067Z,102104.88
2018-05-27T06:48:00.809Z,102114.14
2018-05-27T06:50:26.610Z,102109.16
2018-05-27T06:52:52.358Z,102113.84
2018-05-27T06:55:18.087Z,102113.95
2018-05-27T06:57:43.827Z,102099.03
2018-05-27T07:00:09.564Z,102094.18
2018-05-27T07:02:35.299Z,102094.96
2018-05-27T07:05:01.042Z,102100.25
2018-05-27T07:07:26.788Z,102102.84
2018-05-27T07:09:52.520Z,102096.50
2018-05-27T07:12:18.261Z,102095.09
2018-05-27T07:14:44.012Z,102103.88
2018-05-27T07:17:09.796Z,102101.78
2018-05-27T07:19:35.504Z,102110.80
2018-05-27T07:22:01.232Z,102113.59
2018-05-27T07:24:26.976Z,102113.02
2018-05-27T07:26:52.717Z,102107.52
2018-05-27T07:29:18.475Z,102116.82
2018-05-27T07:31:44.224Z,102118.05
2018-05-27T07:34:09.967Z,102121.40
2018-05-27T07:36:35.715Z,102123.08
2018-05-27T07:39:01.462Z,102123.64
2018-05-27T07:41:27.200Z,102119.40
2018-05-27T07:43:52.959Z,102116.44
2018-05-27T07:46:18.700Z,102120.41
2018-05-27T07:48:44.435Z,102115.86
2018-05-27T07:51:10.171Z,102107.54
2018-05-27T07:53:35.916Z,102115.94
2018-05-27T07:56:01.673Z,102113.28
2018-05-27T07:58:27.458Z,102117.45
2018-05-27T08:00:53.165Z,102104.81
2018-05-27T08:03:18.907Z,102121.12
2018-05-27T08:05:44.641Z,102121.63
2018-05-27T08:08:10.405Z,102122.77
2018-05-27T08:10:36.129Z,102116.66
2018-05-27T08:13:01.889Z,102106.83
2018-05-27T08:15:27.627Z,102107.50
2018-05-27T08:17:53.526Z,102114.52
2018-05-27T08:20:19.284Z,102117.73
2018-05-27T08:22:45.022Z,102120.25
2018-05-27T08:25:10.764Z,102117.36
2018-05-27T08:27:36.517Z,102117.56
2018-05-27T08:30:02.275Z,102116.11
2018-05-27T08:32:28.009Z,102121.92
2018-05-27T08:34:53.777Z,102124.73
2018-05-27T08:37:19.512Z,102125.81
2018-05-27T08:39:45.285Z,102125.37
2018-05-27T08:42:11.031Z,102125.42
2018-05-27T08:44:36.786Z,102113.87
2018-05-27T08:47:02.517Z,102119.32
2018-05-27T08:49:28.267Z,102113.80
2018-05-27T08:51:54.013Z,102111.77
2018-05-27T08:54:19.763Z,102116.78
2018-05-27T08:56:45.496Z,102113.95
2018-05-27T08:59:11.256Z,102113.30
2018-05-27T09:01:36.975Z,102116.86
2018-05-27T09:04:02.730Z,102116.11
2018-05-27T09:06:28.474Z,102117.75
2018-05-27T09:08:54.292Z,102118.59
2018-05-27T09:11:19.986Z,102115.94
2018-05-27T09:13:46.520Z,102117.45
2018-05-27T09:16:12.258Z,102116.55
2018-05-27T09:18:37.999Z,102119.80
2018-05-27T09:21:03.729Z,102105.78
2018-05-27T09:23:29.465Z,102110.50
2018-05-27T09:25:55.235Z,102112.08
2018-05-27T09:28:20.961Z,102113.88
2018-05-27T09:30:46.710Z,102106.94
2018-05-27T09:33:12.444Z,102105.73
2018-05-27T09:35:38.181Z,102103.17
2018-05-27T09:38:03.924Z,102094.66
2018-05-27T09:40:29.659Z,102099.27
2018-05-27T09:42:55.388Z,102093.00
2018-05-27T09:45:21.171Z,102093.80
2018-05-27T09:47:48.477Z,102100.39
2018-05-27T09:50:14.227Z,102099.94
2018-05-27T09:52:39.954Z,102101.18
2018-05-27T09:55:06.571Z,102096.56
2018-05-27T09:57:32.299Z,102097.81
2018-05-27T09:59:58.043Z,102098.17
2018-05-27T10:02:23.780Z,102095.42
2018-05-27T10:04:49.548Z,102100.04
2018-05-27T10:07:15.281Z,102101.83
2018-05-27T10:09:41.032Z,102103.20
2018-05-27T10:12:06.785Z,102102.73
2018-05-27T10:14:32.531Z,102096.69
2018-05-27T10:16:58.273Z,102103.52
2018-05-27T10:19:24.033Z,102108.37
2018-05-27T10:21:49.773Z,102107.11
2018-05-27T10:24:15.530Z,102110.66
2018-05-27T10:26:41.275Z,102102.99
2018-05-27T10:29:07.014Z,102106.03
2018-05-27T10:31:32.744Z,102105.64
2018-05-27T10:33:58.475Z,102098.93
2018-05-27T10:36:24.208Z,102104.55
2018-05-27T10:38:49.946Z,102100.48
2018-05-27T10:41:15.824Z,102102.30
2018-05-27T10:43:41.579Z,102100.35
2018-05-27T10:46:07.317Z,102104.40
2018-05-27T10:48:33.049Z,102096.27
2018-05-27T10:50:59.121Z,102088.05
2018-05-27T10:53:24.851Z,102097.83
2018-05-27T10:55:50.593Z,102095.24
2018-05-27T10:58:16.336Z,102096.44
2018-05-27T11:00:42.079Z,102091.28
2018-05-27T11:03:07.810Z,102097.19
2018-05-27T11:05:33.561Z,102102.61
2018-05-27T11:07:59.285Z,102102.52
2018-05-27T11:10:25.029Z,102105.46
2018-05-27T11:12:50.755Z,102107.28
2018-05-27T11:15:16.499Z,102102.99
2018-05-27T11:17:42.267Z,102107.66
2018-05-27T11:20:08.006Z,102098.88
2018-05-27T11:22:33.729Z,102090.98
2018-05-27T11:24:59.476Z,102087.52
2018-05-27T11:27:25.220Z,102096.66
2018-05-27T11:29:51.003Z,102084.95
2018-05-27T11:32:16.700Z,102081.37
2018-05-27T11:34:42.444Z,102081.09
2018-05-27T11:37:08.185Z,102082.59
2018-05-27T11:39:33.913Z,102071.22
2018-05-27T11:41:59.655Z,102062.45
2018-05-27T11:44:25.393Z,102054.97
2018-05-27T11:46:51.136Z,102063.66
2018-05-27T11:49:16.902Z,102063.59
2018-05-27T11:51:42.636Z,102053.80
2018-05-27T11:54:08.355Z,102054.29
2018-05-27T11:56:34.096Z,102052.48
2018-05-27T11:58:59.837Z,102058.91
2018-05-27T12:01:25.565Z,102057.05
2018-05-27T12:03:51.301Z,102059.14
2018-05-27T12:06:17.041Z,102055.25
2018-05-27T12:08:42.764Z,102056.51
2018-05-27T12:11:08.508Z,102054.30
2018-05-27T12:13:34.264Z,102043.71
2018-05-27T12:16:00.017Z,102048.23
2018-05-27T12:18:25.744Z,102047.00
2018-05-27T12:20:51.498Z,102039.72
2018-05-27T12:23:17.251Z,102029.66
2018-05-27T12:25:43.008Z,102037.94
2018-05-27T12:28:08.736Z,102036.95
2018-05-27T12:30:34.505Z,102032.03
2018-05-27T12:33:00.241Z,102021.92
2018-05-27T12:35:25.997Z,102017.89
2018-05-27T12:37:51.726Z,102015.89
2018-05-27T12:40:17.500Z,102020.87
2018-05-27T12:42:43.233Z,102016.77
2018-05-27T12:45:08.977Z,102010.22
2018-05-27T12:47:34.721Z,102009.38
2018-05-27T12:50:00.464Z,102009.65
2018-05-27T12:52:26.211Z,102007.78
2018-05-27T12:54:51.945Z,102013.73
2018-05-27T12:57:17.711Z,102007.44
2018-05-27T12:59:43.448Z,102006.49
2018-05-27T13:02:09.222Z,102006.07
2018-05-27T13:04:34.966Z,102006.93
2018-05-27T13:07:00.716Z,102012.63
2018-05-27T13:09:26.565Z,102000.14
2018-05-27T13:11:52.316Z,101999.13
2018-05-27T13:14:18.064Z,101993.75
2018-05-27T13:16:43.974Z,101991.69
2018-05-27T13:19:09.547Z,101996.27
2018-05-27T13:21:35.308Z,101990.83
2018-05-27T13:24:01.462Z,101995.03
2018-05-27T13:26:27.970Z,101980.32
2018-05-27T13:28:53.751Z,101981.05
2018-05-27T13:31:19.502Z,101980.94
2018-05-27T13:33:45.868Z,101975.45
2018-05-27T13:36:11.850Z,101979.05
2018-05-27T13:38:37.593Z,101974.07
2018-05-27T13:41:03.344Z,101976.88
2018-05-27T13:43:29.090Z,101965.73
2018-05-27T13:45:54.838Z,101961.91
2018-05-27T13:48:20.589Z,101965.66
2018-05-27T13:50:46.364Z,101952.66
2018-05-27T13:53:19.139Z,101959.37
2018-05-27T13:55:44.875Z,101959.81
2018-05-27T13:58:10.640Z,101961.67
2018-05-27T14:00:36.380Z,101955.87
2018-05-27T14:03:02.131Z,101949.83
2018-05-27T14:05:27.876Z,101947.84
2018-05-27T14:07:53.631Z,101947.23
2018-05-27T14:10:19.405Z,101949.41
2018-05-27T14:12:45.127Z,101948.91
2018-05-27T14:15:10.894Z,101932.63
2018-05-27T14:17:36.644Z,101935.26
2018-05-27T14:20:02.376Z,101930.32
2018-05-27T14:22:28.107Z,101925.01
2018-05-27T14:24:53.836Z,101932.91
2018-05-27T14:27:19.596Z,101931.20
2018-05-27T14:29:45.334Z,101927.32
2018-05-27T14:32:11.084Z,101931.65
2018-05-27T14:34:36.821Z,101926.40
2018-05-27T14:37:02.584Z,101924.27
2018-05-27T14:39:28.332Z,101921.04
2018-05-27T14:41:54.095Z,101916.34
2018-05-27T14:44:19.842Z,101906.38
2018-05-27T14:46:45.609Z,101903.94
2018-05-27T14:49:11.348Z,101900.36
2018-05-27T14:51:37.116Z,101904.19
2018-05-27T14:54:03.957Z,101901.23
2018-05-27T14:56:29.704Z,101896.29
2018-05-27T14:58:55.446Z,101893.62
2018-05-27T15:01:21.216Z,101900.11
2018-05-27T15:03:46.944Z,101888.42
2018-05-27T15:06:12.675Z,101883.74
2018-05-27T15:08:38.423Z,101869.20
2018-05-27T15:11:04.143Z,101865.22
2018-05-27T15:13:29.879Z,101859.05
2018-05-27T15:15:55.599Z,101867.08
2018-05-27T15:18:21.357Z,101870.33
2018-05-27T15:20:47.068Z,101878.87
2018-05-27T15:23:12.800Z,101882.81
2018-05-27T15:25:38.535Z,101884.55
2018-05-27T15:28:04.273Z,101875.02
2018-05-27T15:30:29.998Z,101867.14
2018-05-27T15:32:55.736Z,101871.02
2018-05-27T15:35:21.464Z,101865.23
2018-05-27T15:37:47.182Z,101870.98
2018-05-27T15:40:12.915Z,101871.71
2018-05-27T15:42:38.655Z,101876.16
2018-05-27T15:45:04.375Z,101873.08
2018-05-27T15:47:30.107Z,101882.00
2018-05-27T15:49:55.836Z,101871.97
2018-05-27T15:52:21.570Z,101871.58
2018-05-27T15:54:47.292Z,101875.99
2018-05-27T15:57:13.052Z,101875.27
2018-05-27T15:59:38.768Z,101869.31
2018-05-27T16:02:04.513Z,101869.40
2018-05-27T16:04:30.247Z,101873.39
2018-05-27T16:06:55.993Z,101865.96
2018-05-27T16:09:21.712Z,101862.65
2018-05-27T16:11:47.460Z,101858.08
2018-05-27T16:14:13.180Z,101859.89
2018-05-27T16:16:38.910Z,101854.73
2018-05-27T16:19:04.659Z,101858.87
2018-05-27T16:21:30.377Z,101858.74
2018-05-27T16:23:56.115Z,101859.30
2018-05-27T16:26:21.835Z,101845.80
2018-05-27T16:28:47.633Z,101860.35
2018-05-27T16:31:13.348Z,101857.95
2018-05-27T16:33:39.083Z,101854.98
2018-05-27T16:36:04.815Z,101856.98
2018-05-27T16:38:30.543Z,101855.35
2018-05-27T16:40:56.260Z,101858.80
2018-05-27T16:43:22.013Z,101855.83
2018-05-27T16:45:47.799Z,101860.47
2018-05-27T16:48:13.485Z,101860.83
2018-05-27T16:50:39.205Z,101855.76
2018-05-27T16:53:04.941Z,101856.79
2018-05-27T16:55:30.705Z,101847.77
2018-05-27T16:57:56.445Z,101859.52
2018-05-27T17:00:22.174Z,101867.63
2018-05-27T17:02:47.915Z,101861.85
2018-05-27T17:05:13.650Z,101868.50
2018-05-27T17:07:39.390Z,101868.12
2018-05-27T17:10:05.123Z,101864.69
2018-05-27T17:12:30.867Z,101867.70
2018-05-27T17:14:56.592Z,101860.70
2018-05-27T17:17:22.340Z,101851.47
2018-05-27T17:19:48.060Z,101853.11
2018-05-27T17:22:13.811Z,101845.80
2018-05-27T17:24:39.556Z,101846.33
2018-05-27T17:27:05.280Z,101840.43
2018-05-27T17:29:31.012Z,101835.30
2018-05-27T17:31:56.740Z,101830.81
2018-05-27T17:34:22.496Z,101830.19
2018-05-27T17:36:48.232Z,101828.48
2018-05-27T17:39:13.988Z,101830.78
2018-05-27T17:41:40.956Z,101827.51
2018-05-27T17:44:06.738Z,101830.78
2018-05-27T17:46:32.481Z,101829.50
2018-05-27T17:48:58.231Z,101823.45
2018-05-27T17:51:23.964Z,101833.78
2018-05-27T17:53:49.888Z,101834.67
2018-05-27T17:56:15.635Z,101838.55
2018-05-27T17:58:41.372Z,101845.30
2018-05-27T18:01:07.197Z,101837.94
2018-05-27T18:03:33.314Z,101834.48
2018-05-27T18:05:59.223Z,101834.61
2018-05-27T18:08:24.992Z,101832.84
2018-05-27T18:10:50.799Z,101838.64
2018-05-27T18:13:16.550Z,101846.17
2018-05-27T18:15:42.333Z,101848.48
2018-05-27T18:18:08.095Z,101846.30
2018-05-27T18:20:33.807Z,101848.64
2018-05-27T18:22:59.556Z,101853.06
2018-05-27T18:25:25.292Z,101854.34
2018-05-27T18:27:51.041Z,101862.30
2018-05-27T18:30:16.760Z,101857.83
2018-05-27T18:32:42.496Z,101856.18
2018-05-27T18:35:08.219Z,101855.74
2018-05-27T18:37:33.959Z,101859.25
2018-05-27T18:39:59.684Z,101858.13
2018-05-27T18:42:25.425Z,101858.64
2018-05-27T18:44:51.168Z,101864.88
2018-05-27T18:47:16.899Z,101870.57
2018-05-27T18:49:42.648Z,101865.53
2018-05-27T18:52:08.376Z,101866.50
2018-05-27T18:54:34.116Z,101875.27
2018-05-27T18:56:59.855Z,101880.91
2018-05-27T18:59:25.595Z,101883.34
2018-05-27T19:01:51.321Z,101884.24
2018-05-27T19:04:17.088Z,101894.09
2018-05-27T19:06:42.789Z,101897.05
2018-05-27T19:09:08.543Z,101890.42
2018-05-27T19:11:34.408Z,101887.69
2018-05-27T19:14:00.165Z,101890.16
2018-05-27T19:16:25.885Z,101894.72
2018-05-27T19:18:51.636Z,101893.22
2018-05-27T19:21:17.364Z,101888.36
2018-05-27T19:23:43.113Z,101886.76
2018-05-27T19:26:08.874Z,101893.58
2018-05-27T19:28:34.596Z,101888.85
2018-05-27T19:31:00.332Z,101900.15
2018-05-27T19:33:26.073Z,101899.32
2018-05-27T19:35:51.794Z,101898.44
2018-05-27T19:38:17.533Z,101896.13
2018-05-27T19:40:43.276Z,101893.97
2018-05-27T19:43:09.007Z,101885.95
2018-05-27T19:45:34.737Z,101883.58
2018-05-27T19:48:00.524Z,101892.60
2018-05-27T19:50:26.252Z,101892.22
2018-05-27T19:52:51.995Z,101889.07
2018-05-27T19:55:17.720Z,101888.97
2018-05-27T19:57:43.556Z,101881.16
2018-05-27T20:00:09.300Z,101872.52
2018-05-27T20:02:35.040Z,101868.05
2018-05-27T20:05:00.784Z,101873.52
2018-05-27T20:07:26.524Z,101866.89
2018-05-27T20:09:52.302Z,101858.75
2018-05-27T20:12:17.999Z,101868.62
2018-05-27T20:14:43.749Z,101871.05
2018-05-27T20:17:09.484Z,101875.10
2018-05-27T20:19:35.221Z,101862.95
2018-05-27T20:22:00.941Z,101856.97
2018-05-27T20:24:26.692Z,101866.80
2018-05-27T20:26:52.421Z,101867.20
2018-05-27T20:29:18.173Z,101865.62
2018-05-27T20:31:43.900Z,101866.31
2018-05-27T20:34:09.654Z,101867.59
2018-05-27T20:36:35.401Z,101871.79
2018-05-27T20:39:01.135Z,101873.67
2018-05-27T20:41:26.875Z,101874.75
2018-05-27T20:43:52.604Z,101878.37
2018-05-27T20:46:18.357Z,101872.04
2018-05-27T20:48:44.075Z,101872.63
2018-05-27T20:51:09.856Z,101866.56
2018-05-27T20:53:35.580Z,101874.27
2018-05-27T20:56:01.328Z,101870.30
2018-05-27T20:58:27.061Z,101862.88
2018-05-27T21:00:52.833Z,101863.95
2018-05-27T21:03:18.564Z,101862.95
2018-05-27T21:05:44.311Z,101860.73
2018-05-27T21:08:10.380Z,101856.95
2018-05-27T21:10:36.169Z,101853.38
2018-05-27T21:13:01.921Z,101859.50
2018-05-27T21:15:27.693Z,101854.31
2018-05-27T21:17:53.425Z,101861.17
2018-05-27T21:20:19.268Z,101863.36
2018-05-27T21:22:46.141Z,101862.16
2018-05-27T21:25:11.904Z,101860.83
2018-05-27T21:27:37.634Z,101855.79
2018-05-27T21:30:03.362Z,101853.91
2018-05-27T21:32:29.991Z,101853.44
2018-05-27T21:34:55.736Z,101859.92
2018-05-27T21:37:21.451Z,101854.23
2018-05-27T21:39:49.479Z,101853.87
2018-05-27T21:42:15.247Z,101849.27
2018-05-27T21:44:40.960Z,101849.66
2018-05-27T21:47:07.962Z,101857.57
2018-05-27T21:49:33.706Z,101859.45
2018-05-27T21:51:59.434Z,101862.41
2018-05-27T21:54:25.196Z,101857.98
2018-05-27T21:56:50.899Z,101863.33
2018-05-27T21:59:16.620Z,101860.61
2018-05-27T22:01:42.363Z,101857.25
2018-05-27T22:04:08.219Z,101850.09
2018-05-27T22:06:33.977Z,101849.01
2018-05-27T22:08:59.697Z,101847.52
2018-05-27T22:11:26.926Z,101843.51
2018-05-27T22:13:52.688Z,101844.94
2018-05-27T22:16:18.424Z,101843.66
2018-05-27T22:18:44.148Z,101845.38
2018-05-27T22:21:09.878Z,101841.23
2018-05-27T22:23:35.599Z,101842.34
2018-05-27T22:26:01.336Z,101841.05
2018-05-27T22:28:27.053Z,101840.95
2018-05-27T22:30:52.795Z,101842.63
2018-05-27T22:33:18.523Z,101839.92
2018-05-27T22:35:44.259Z,101839.61
2018-05-27T22:38:09.980Z,101845.01
2018-05-27T22:40:35.709Z,101834.63
2018-05-27T22:43:01.444Z,101837.45
2018-05-27T22:45:27.169Z,101842.30
2018-05-27T22:47:52.908Z,101832.55
2018-05-27T22:50:18.623Z,101828.64
2018-05-27T22:52:44.361Z,101828.74
2018-05-27T22:55:10.088Z,101826.47
2018-05-27T22:57:35.842Z,101834.27
2018-05-27T23:00:01.569Z,101833.27
2018-05-27T23:02:27.304Z,101838.12
2018-05-27T23:04:53.032Z,101837.03
2018-05-27T23:07:18.764Z,101834.59
2018-05-27T23:09:44.493Z,101839.83
2018-05-27T23:12:10.233Z,101834.48
2018-05-27T23:14:35.960Z,101837.09
2018-05-27T23:17:01.696Z,101832.45
2018-05-27T23:19:27.436Z,101829.04
2018-05-27T23:21:53.165Z,101829.32
2018-05-27T23:24:18.924Z,101833.13
2018-05-27T23:26:44.721Z,101825.11
2018-05-27T23:29:10.460Z,101819.94
2018-05-27T23:31:36.192Z,101819.38
2018-05-27T23:34:01.928Z,101812.69
2018-05-27T23:36:27.664Z,101816.59
2018-05-27T23:38:53.401Z,101813.04
2018-05-27T23:41:19.160Z,101818.38
2018-05-27T23:43:44.887Z,101816.75
2018-05-27T23:46:10.616Z,101820.69
2018-05-27T23:48:36.362Z,101812.46
2018-05-27T23:51:02.093Z,101818.53
2018-05-27T23:53:27.835Z,101813.34
2018-05-27T23:55:53.551Z,101812.14
2018-05-27T23:58:19.304Z,101813.36
